Depauville, New York
Current Conditions -  °F | °C
As of 6:56 AM on Monday 22 Dec 2014 (Local Time) from KART Reporting Station
Overcast Overcast  
Wind Chill: 15°   Ceiling: 2100
Heat Index: 23°   Visibility: 7mi
Dew Point: 17°   Wind: 7mph
Humidity: 78%   Direction: 50°NE
Pressure: 30.32"   Gusts: NA
Location:  44.14°N, 76.07°W
Report Text: KART 221156Z AUTO 05006KT 7SM OVC021 M05/M08 A3032 RMK AO2 SLP275 I6000 T10501083 11044 21067 56002
Loading
Personal Weather Stations






























Interactive Weather Map New forecast layout! Learn more

10-Day Weather Forecast

Advertisements
Track Severe Weather on mobile